sensor_id;sensor_type;location;lat;lon;timestamp;P1;durP1;ratioP1;P2;durP2;ratioP2
16967;SDS011;8600;54.338;10.128;2022-08-21T00:00:45;10.43;;;4.25;;
16967;SDS011;8600;54.338;10.128;2022-08-21T00:03:13;13.50;;;4.10;;
16967;SDS011;8600;54.338;10.128;2022-08-21T00:05:41;12.88;;;4.28;;
16967;SDS011;8600;54.338;10.128;2022-08-21T00:08:10;16.05;;;3.67;;
16967;SDS011;8600;54.338;10.128;2022-08-21T00:10:37;12.63;;;3.70;;
16967;SDS011;8600;54.338;10.128;2022-08-21T00:13:05;16.60;;;3.92;;
16967;SDS011;8600;54.338;10.128;2022-08-21T00:15:34;12.27;;;3.65;;
16967;SDS011;8600;54.338;10.128;2022-08-21T00:18:04;12.68;;;3.70;;
16967;SDS011;8600;54.338;10.128;2022-08-21T00:20:32;14.38;;;4.00;;
16967;SDS011;8600;54.338;10.128;2022-08-21T00:22:59;12.98;;;4.00;;
16967;SDS011;8600;54.338;10.128;2022-08-21T00:25:26;16.58;;;4.10;;
16967;SDS011;8600;54.338;10.128;2022-08-21T00:27:54;13.15;;;3.90;;
16967;SDS011;8600;54.338;10.128;2022-08-21T00:30:22;15.40;;;4.00;;
16967;SDS011;8600;54.338;10.128;2022-08-21T00:32:52;13.32;;;4.13;;
16967;SDS011;8600;54.338;10.128;2022-08-21T00:35:23;15.30;;;4.35;;
16967;SDS011;8600;54.338;10.128;2022-08-21T00:37:54;15.43;;;4.72;;
16967;SDS011;8600;54.338;10.128;2022-08-21T00:40:23;17.20;;;4.07;;
16967;SDS011;8600;54.338;10.128;2022-08-21T00:42:52;15.50;;;3.92;;
16967;SDS011;8600;54.338;10.128;2022-08-21T00:45:19;14.10;;;4.20;;
16967;SDS011;8600;54.338;10.128;2022-08-21T00:47:47;12.73;;;4.10;;
16967;SDS011;8600;54.338;10.128;2022-08-21T00:50:14;14.05;;;4.22;;
16967;SDS011;8600;54.338;10.128;2022-08-21T00:52:43;14.00;;;4.05;;
16967;SDS011;8600;54.338;10.128;2022-08-21T00:55:11;18.40;;;4.75;;
16967;SDS011;8600;54.338;10.128;2022-08-21T00:57:42;15.75;;;4.47;;
16967;SDS011;8600;54.338;10.128;2022-08-21T01:00:13;16.33;;;4.88;;
16967;SDS011;8600;54.338;10.128;2022-08-21T01:02:43;15.05;;;4.45;;
16967;SDS011;8600;54.338;10.128;2022-08-21T01:05:10;17.63;;;4.60;;
16967;SDS011;8600;54.338;10.128;2022-08-21T01:07:38;18.63;;;5.05;;
16967;SDS011;8600;54.338;10.128;2022-08-21T01:10:08;13.93;;;4.50;;
16967;SDS011;8600;54.338;10.128;2022-08-21T01:12:36;15.43;;;4.50;;
16967;SDS011;8600;54.338;10.128;2022-08-21T01:15:03;16.48;;;4.75;;
16967;SDS011;8600;54.338;10.128;2022-08-21T01:17:32;16.17;;;4.90;;
16967;SDS011;8600;54.338;10.128;2022-08-21T01:20:03;15.93;;;4.80;;
16967;SDS011;8600;54.338;10.128;2022-08-21T01:22:34;14.88;;;5.07;;
16967;SDS011;8600;54.338;10.128;2022-08-21T01:25:01;13.98;;;4.65;;
16967;SDS011;8600;54.338;10.128;2022-08-21T01:27:28;15.63;;;5.03;;
16967;SDS011;8600;54.338;10.128;2022-08-21T01:29:56;15.38;;;4.72;;
16967;SDS011;8600;54.338;10.128;2022-08-21T01:32:27;16.40;;;5.00;;
16967;SDS011;8600;54.338;10.128;2022-08-21T01:34:54;16.00;;;4.97;;
16967;SDS011;8600;54.338;10.128;2022-08-21T01:37:21;13.60;;;4.72;;
16967;SDS011;8600;54.338;10.128;2022-08-21T01:39:49;17.13;;;5.40;;
16967;SDS011;8600;54.338;10.128;2022-08-21T01:42:16;14.68;;;5.03;;
16967;SDS011;8600;54.338;10.128;2022-08-21T01:44:44;15.25;;;4.93;;
16967;SDS011;8600;54.338;10.128;2022-08-21T01:47:11;17.30;;;4.93;;
16967;SDS011;8600;54.338;10.128;2022-08-21T01:49:40;15.48;;;5.25;;
16967;SDS011;8600;54.338;10.128;2022-08-21T01:52:08;13.63;;;4.65;;
16967;SDS011;8600;54.338;10.128;2022-08-21T01:54:36;12.73;;;4.78;;
16967;SDS011;8600;54.338;10.128;2022-08-21T01:57:06;12.77;;;4.70;;
16967;SDS011;8600;54.338;10.128;2022-08-21T01:59:34;15.30;;;4.90;;
16967;SDS011;8600;54.338;10.128;2022-08-21T02:02:02;17.13;;;5.30;;
16967;SDS011;8600;54.338;10.128;2022-08-21T02:04:29;15.95;;;5.05;;
16967;SDS011;8600;54.338;10.128;2022-08-21T02:06:56;14.02;;;4.70;;
16967;SDS011;8600;54.338;10.128;2022-08-21T02:09:23;15.45;;;5.43;;
16967;SDS011;8600;54.338;10.128;2022-08-21T02:11:50;12.23;;;4.90;;
16967;SDS011;8600;54.338;10.128;2022-08-21T02:14:20;18.10;;;4.93;;
16967;SDS011;8600;54.338;10.128;2022-08-21T02:16:47;13.38;;;4.80;;
16967;SDS011;8600;54.338;10.128;2022-08-21T02:19:14;10.98;;;4.50;;
16967;SDS011;8600;54.338;10.128;2022-08-21T02:21:42;13.60;;;4.95;;
16967;SDS011;8600;54.338;10.128;2022-08-21T02:24:11;16.58;;;4.97;;
16967;SDS011;8600;54.338;10.128;2022-08-21T02:26:38;13.70;;;4.50;;
16967;SDS011;8600;54.338;10.128;2022-08-21T02:29:05;15.73;;;5.43;;
16967;SDS011;8600;54.338;10.128;2022-08-21T02:31:34;14.00;;;4.45;;
16967;SDS011;8600;54.338;10.128;2022-08-21T02:34:01;19.67;;;4.88;;
16967;SDS011;8600;54.338;10.128;2022-08-21T02:36:29;12.05;;;4.70;;
16967;SDS011;8600;54.338;10.128;2022-08-21T02:38:56;13.95;;;4.93;;
16967;SDS011;8600;54.338;10.128;2022-08-21T02:41:23;13.98;;;4.43;;
16967;SDS011;8600;54.338;10.128;2022-08-21T02:43:50;11.20;;;4.57;;
16967;SDS011;8600;54.338;10.128;2022-08-21T02:46:18;15.15;;;4.70;;
16967;SDS011;8600;54.338;10.128;2022-08-21T02:48:48;13.85;;;4.60;;
16967;SDS011;8600;54.338;10.128;2022-08-21T02:51:16;13.30;;;4.40;;
16967;SDS011;8600;54.338;10.128;2022-08-21T02:53:45;10.93;;;4.18;;
16967;SDS011;8600;54.338;10.128;2022-08-21T02:56:15;17.33;;;4.47;;
16967;SDS011;8600;54.338;10.128;2022-08-21T02:58:45;17.02;;;4.32;;
16967;SDS011;8600;54.338;10.128;2022-08-21T03:01:14;13.20;;;4.47;;
16967;SDS011;8600;54.338;10.128;2022-08-21T03:03:42;14.50;;;4.13;;
16967;SDS011;8600;54.338;10.128;2022-08-21T03:06:13;14.50;;;4.20;;
16967;SDS011;8600;54.338;10.128;2022-08-21T03:08:42;16.25;;;4.50;;
16967;SDS011;8600;54.338;10.128;2022-08-21T03:11:10;16.45;;;4.40;;
16967;SDS011;8600;54.338;10.128;2022-08-21T03:13:37;12.27;;;4.22;;
16967;SDS011;8600;54.338;10.128;2022-08-21T03:16:05;13.30;;;3.78;;
16967;SDS011;8600;54.338;10.128;2022-08-21T03:18:32;15.38;;;4.10;;
16967;SDS011;8600;54.338;10.128;2022-08-21T03:21:00;14.02;;;4.20;;
16967;SDS011;8600;54.338;10.128;2022-08-21T03:23:29;12.10;;;4.22;;
16967;SDS011;8600;54.338;10.128;2022-08-21T03:25:57;17.55;;;4.32;;
16967;SDS011;8600;54.338;10.128;2022-08-21T03:28:24;13.90;;;4.30;;
16967;SDS011;8600;54.338;10.128;2022-08-21T03:30:51;13.38;;;4.15;;
16967;SDS011;8600;54.338;10.128;2022-08-21T03:33:19;9.68;;;4.00;;
16967;SDS011;8600;54.338;10.128;2022-08-21T03:35:49;13.20;;;4.35;;
16967;SDS011;8600;54.338;10.128;2022-08-21T03:38:21;13.60;;;4.65;;
16967;SDS011;8600;54.338;10.128;2022-08-21T03:40:50;11.95;;;4.28;;
16967;SDS011;8600;54.338;10.128;2022-08-21T03:43:16;11.38;;;4.32;;
16967;SDS011;8600;54.338;10.128;2022-08-21T03:45:44;10.63;;;4.05;;
16967;SDS011;8600;54.338;10.128;2022-08-21T03:48:11;13.02;;;4.57;;
16967;SDS011;8600;54.338;10.128;2022-08-21T03:50:39;14.48;;;4.38;;
16967;SDS011;8600;54.338;10.128;2022-08-21T03:53:08;15.13;;;4.85;;
16967;SDS011;8600;54.338;10.128;2022-08-21T03:55:36;11.82;;;4.38;;
16967;SDS011;8600;54.338;10.128;2022-08-21T03:58:06;14.15;;;5.03;;
16967;SDS011;8600;54.338;10.128;2022-08-21T04:00:33;15.82;;;5.30;;
16967;SDS011;8600;54.338;10.128;2022-08-21T04:03:00;14.45;;;4.97;;
16967;SDS011;8600;54.338;10.128;2022-08-21T04:05:27;15.38;;;5.20;;
16967;SDS011;8600;54.338;10.128;2022-08-21T04:07:55;21.67;;;5.28;;
16967;SDS011;8600;54.338;10.128;2022-08-21T04:10:24;15.18;;;4.85;;
16967;SDS011;8600;54.338;10.128;2022-08-21T04:12:52;13.55;;;5.32;;
16967;SDS011;8600;54.338;10.128;2022-08-21T04:15:22;16.58;;;5.40;;
16967;SDS011;8600;54.338;10.128;2022-08-21T04:17:50;13.10;;;4.43;;
16967;SDS011;8600;54.338;10.128;2022-08-21T04:20:17;13.75;;;5.07;;
16967;SDS011;8600;54.338;10.128;2022-08-21T04:22:46;9.55;;;4.68;;
16967;SDS011;8600;54.338;10.128;2022-08-21T04:25:15;13.68;;;4.40;;
16967;SDS011;8600;54.338;10.128;2022-08-21T04:27:43;12.18;;;5.00;;
16967;SDS011;8600;54.338;10.128;2022-08-21T04:30:11;15.90;;;4.88;;
16967;SDS011;8600;54.338;10.128;2022-08-21T04:32:41;12.63;;;4.57;;
16967;SDS011;8600;54.338;10.128;2022-08-21T04:35:09;12.27;;;4.78;;
16967;SDS011;8600;54.338;10.128;2022-08-21T04:37:37;15.63;;;4.80;;
16967;SDS011;8600;54.338;10.128;2022-08-21T04:40:05;14.55;;;4.57;;
16967;SDS011;8600;54.338;10.128;2022-08-21T04:42:40;10.18;;;4.53;;
16967;SDS011;8600;54.338;10.128;2022-08-21T04:47:44;16.60;;;5.10;;
16967;SDS011;8600;54.338;10.128;2022-08-21T04:50:10;13.35;;;4.63;;
16967;SDS011;8600;54.338;10.128;2022-08-21T04:52:51;13.68;;;4.70;;
16967;SDS011;8600;54.338;10.128;2022-08-21T04:55:19;12.07;;;4.32;;
16967;SDS011;8600;54.338;10.128;2022-08-21T04:57:47;16.15;;;4.38;;
16967;SDS011;8600;54.338;10.128;2022-08-21T05:00:16;14.55;;;4.28;;
16967;SDS011;8600;54.338;10.128;2022-08-21T05:02:45;13.68;;;4.30;;
16967;SDS011;8600;54.338;10.128;2022-08-21T05:05:13;10.95;;;4.05;;
16967;SDS011;8600;54.338;10.128;2022-08-21T05:07:41;10.15;;;4.00;;
16967;SDS011;8600;54.338;10.128;2022-08-21T05:10:10;8.65;;;3.50;;
16967;SDS011;8600;54.338;10.128;2022-08-21T05:12:39;11.38;;;3.33;;
16967;SDS011;8600;54.338;10.128;2022-08-21T05:15:08;10.80;;;3.60;;
16967;SDS011;8600;54.338;10.128;2022-08-21T05:17:37;8.82;;;3.25;;
16967;SDS011;8600;54.338;10.128;2022-08-21T05:20:06;11.98;;;3.55;;
16967;SDS011;8600;54.338;10.128;2022-08-21T05:22:34;10.77;;;3.33;;
16967;SDS011;8600;54.338;10.128;2022-08-21T05:25:01;9.73;;;3.22;;
16967;SDS011;8600;54.338;10.128;2022-08-21T05:27:29;9.85;;;3.20;;
16967;SDS011;8600;54.338;10.128;2022-08-21T05:29:57;10.93;;;3.30;;
16967;SDS011;8600;54.338;10.128;2022-08-21T05:32:24;14.50;;;3.20;;
16967;SDS011;8600;54.338;10.128;2022-08-21T05:34:53;10.23;;;2.85;;
16967;SDS011;8600;54.338;10.128;2022-08-21T05:37:21;8.98;;;2.95;;
16967;SDS011;8600;54.338;10.128;2022-08-21T05:39:48;9.30;;;2.85;;
16967;SDS011;8600;54.338;10.128;2022-08-21T05:42:15;14.70;;;3.08;;
16967;SDS011;8600;54.338;10.128;2022-08-21T05:44:42;8.02;;;2.35;;
16967;SDS011;8600;54.338;10.128;2022-08-21T05:47:10;7.93;;;2.10;;
16967;SDS011;8600;54.338;10.128;2022-08-21T05:49:38;8.52;;;2.70;;
16967;SDS011;8600;54.338;10.128;2022-08-21T05:52:05;10.88;;;2.28;;
16967;SDS011;8600;54.338;10.128;2022-08-21T05:54:34;9.68;;;2.20;;
16967;SDS011;8600;54.338;10.128;2022-08-21T05:57:02;7.90;;;2.33;;
16967;SDS011;8600;54.338;10.128;2022-08-21T05:59:29;9.02;;;2.40;;
16967;SDS011;8600;54.338;10.128;2022-08-21T06:01:56;8.18;;;2.25;;
16967;SDS011;8600;54.338;10.128;2022-08-21T06:04:23;8.25;;;2.13;;
16967;SDS011;8600;54.338;10.128;2022-08-21T06:06:50;11.80;;;2.38;;
16967;SDS011;8600;54.338;10.128;2022-08-21T06:09:17;9.50;;;2.35;;
16967;SDS011;8600;54.338;10.128;2022-08-21T06:11:46;9.20;;;2.22;;
16967;SDS011;8600;54.338;10.128;2022-08-21T06:14:13;10.98;;;2.65;;
16967;SDS011;8600;54.338;10.128;2022-08-21T06:16:41;7.80;;;2.45;;
16967;SDS011;8600;54.338;10.128;2022-08-21T06:19:08;11.25;;;2.85;;
16967;SDS011;8600;54.338;10.128;2022-08-21T06:21:35;8.98;;;2.25;;
16967;SDS011;8600;54.338;10.128;2022-08-21T06:24:02;7.13;;;1.98;;
16967;SDS011;8600;54.338;10.128;2022-08-21T06:26:32;9.73;;;2.22;;
16967;SDS011;8600;54.338;10.128;2022-08-21T06:29:01;9.57;;;2.33;;
16967;SDS011;8600;54.338;10.128;2022-08-21T06:31:28;8.15;;;2.05;;
16967;SDS011;8600;54.338;10.128;2022-08-21T06:33:55;8.77;;;2.05;;
16967;SDS011;8600;54.338;10.128;2022-08-21T06:36:22;7.97;;;2.10;;
16967;SDS011;8600;54.338;10.128;2022-08-21T06:38:49;7.78;;;1.80;;
16967;SDS011;8600;54.338;10.128;2022-08-21T06:41:16;8.65;;;2.10;;
16967;SDS011;8600;54.338;10.128;2022-08-21T06:43:43;5.93;;;1.83;;
16967;SDS011;8600;54.338;10.128;2022-08-21T06:46:12;9.07;;;1.80;;
16967;SDS011;8600;54.338;10.128;2022-08-21T06:48:38;7.32;;;1.80;;
16967;SDS011;8600;54.338;10.128;2022-08-21T06:51:05;10.63;;;2.00;;
16967;SDS011;8600;54.338;10.128;2022-08-21T06:53:32;5.65;;;1.65;;
16967;SDS011;8600;54.338;10.128;2022-08-21T06:55:59;5.53;;;1.80;;
16967;SDS011;8600;54.338;10.128;2022-08-21T06:58:26;7.38;;;1.73;;
16967;SDS011;8600;54.338;10.128;2022-08-21T07:00:54;8.43;;;1.73;;
16967;SDS011;8600;54.338;10.128;2022-08-21T07:03:23;4.65;;;1.50;;
16967;SDS011;8600;54.338;10.128;2022-08-21T07:05:52;8.85;;;2.03;;
16967;SDS011;8600;54.338;10.128;2022-08-21T07:08:20;8.45;;;1.80;;
16967;SDS011;8600;54.338;10.128;2022-08-21T07:10:48;8.45;;;1.58;;
16967;SDS011;8600;54.338;10.128;2022-08-21T07:13:15;8.10;;;1.70;;
16967;SDS011;8600;54.338;10.128;2022-08-21T07:15:43;8.60;;;1.80;;
16967;SDS011;8600;54.338;10.128;2022-08-21T07:18:11;4.90;;;1.38;;
16967;SDS011;8600;54.338;10.128;2022-08-21T07:20:39;6.57;;;1.60;;
16967;SDS011;8600;54.338;10.128;2022-08-21T07:23:08;5.25;;;1.48;;
16967;SDS011;8600;54.338;10.128;2022-08-21T07:25:37;7.07;;;1.48;;
16967;SDS011;8600;54.338;10.128;2022-08-21T07:28:03;5.80;;;1.50;;
16967;SDS011;8600;54.338;10.128;2022-08-21T07:30:31;5.53;;;1.30;;
16967;SDS011;8600;54.338;10.128;2022-08-21T07:32:58;7.22;;;1.63;;
16967;SDS011;8600;54.338;10.128;2022-08-21T07:35:25;4.95;;;1.52;;
16967;SDS011;8600;54.338;10.128;2022-08-21T07:37:54;5.80;;;1.40;;
16967;SDS011;8600;54.338;10.128;2022-08-21T07:40:21;7.13;;;1.50;;
16967;SDS011;8600;54.338;10.128;2022-08-21T07:42:48;5.97;;;1.50;;
16967;SDS011;8600;54.338;10.128;2022-08-21T07:45:17;7.93;;;2.22;;
16967;SDS011;8600;54.338;10.128;2022-08-21T07:47:45;7.10;;;2.22;;
16967;SDS011;8600;54.338;10.128;2022-08-21T07:50:13;5.90;;;1.52;;
16967;SDS011;8600;54.338;10.128;2022-08-21T07:52:42;6.00;;;1.38;;
16967;SDS011;8600;54.338;10.128;2022-08-21T07:55:11;7.55;;;1.80;;
16967;SDS011;8600;54.338;10.128;2022-08-21T07:57:40;9.13;;;1.50;;
16967;SDS011;8600;54.338;10.128;2022-08-21T08:00:08;8.13;;;1.65;;
16967;SDS011;8600;54.338;10.128;2022-08-21T08:02:39;6.68;;;1.58;;
16967;SDS011;8600;54.338;10.128;2022-08-21T08:05:08;7.28;;;1.90;;
16967;SDS011;8600;54.338;10.128;2022-08-21T08:07:37;7.28;;;1.70;;
16967;SDS011;8600;54.338;10.128;2022-08-21T08:10:05;6.28;;;1.45;;
16967;SDS011;8600;54.338;10.128;2022-08-21T08:12:37;7.85;;;1.50;;
16967;SDS011;8600;54.338;10.128;2022-08-21T08:15:07;9.32;;;1.58;;
16967;SDS011;8600;54.338;10.128;2022-08-21T08:17:36;13.82;;;1.40;;
16967;SDS011;8600;54.338;10.128;2022-08-21T08:20:04;6.45;;;1.23;;
16967;SDS011;8600;54.338;10.128;2022-08-21T08:22:33;10.70;;;1.60;;
16967;SDS011;8600;54.338;10.128;2022-08-21T08:25:01;8.60;;;1.83;;
16967;SDS011;8600;54.338;10.128;2022-08-21T08:27:29;7.35;;;1.60;;
16967;SDS011;8600;54.338;10.128;2022-08-21T08:29:57;5.00;;;1.40;;
16967;SDS011;8600;54.338;10.128;2022-08-21T08:32:25;5.88;;;1.52;;
16967;SDS011;8600;54.338;10.128;2022-08-21T08:34:52;6.63;;;1.55;;
16967;SDS011;8600;54.338;10.128;2022-08-21T08:37:19;7.00;;;1.60;;
16967;SDS011;8600;54.338;10.128;2022-08-21T08:39:46;12.32;;;1.75;;
16967;SDS011;8600;54.338;10.128;2022-08-21T08:42:16;6.20;;;1.40;;
16967;SDS011;8600;54.338;10.128;2022-08-21T08:44:46;7.65;;;1.48;;
16967;SDS011;8600;54.338;10.128;2022-08-21T08:47:16;8.52;;;1.80;;
16967;SDS011;8600;54.338;10.128;2022-08-21T08:49:47;5.88;;;1.73;;
16967;SDS011;8600;54.338;10.128;2022-08-21T08:52:22;8.75;;;1.70;;
16967;SDS011;8600;54.338;10.128;2022-08-21T08:54:56;7.28;;;1.48;;
16967;SDS011;8600;54.338;10.128;2022-08-21T08:57:28;11.27;;;1.90;;
16967;SDS011;8600;54.338;10.128;2022-08-21T08:59:56;5.72;;;1.38;;
16967;SDS011;8600;54.338;10.128;2022-08-21T09:02:27;5.60;;;1.50;;
16967;SDS011;8600;54.338;10.128;2022-08-21T09:04:54;11.15;;;1.90;;
16967;SDS011;8600;54.338;10.128;2022-08-21T09:07:24;10.00;;;1.83;;
16967;SDS011;8600;54.338;10.128;2022-08-21T09:10:03;7.60;;;1.80;;
16967;SDS011;8600;54.338;10.128;2022-08-21T09:12:38;6.70;;;1.67;;
16967;SDS011;8600;54.338;10.128;2022-08-21T09:15:13;5.57;;;1.40;;
16967;SDS011;8600;54.338;10.128;2022-08-21T09:18:04;7.35;;;1.75;;
16967;SDS011;8600;54.338;10.128;2022-08-21T09:20:47;8.15;;;2.13;;
16967;SDS011;8600;54.338;10.128;2022-08-21T09:23:25;6.38;;;1.60;;
16967;SDS011;8600;54.338;10.128;2022-08-21T09:26:02;11.40;;;2.10;;
16967;SDS011;8600;54.338;10.128;2022-08-21T09:28:33;9.48;;;1.98;;
16967;SDS011;8600;54.338;10.128;2022-08-21T09:31:02;10.02;;;1.65;;
16967;SDS011;8600;54.338;10.128;2022-08-21T09:33:33;5.95;;;1.65;;
16967;SDS011;8600;54.338;10.128;2022-08-21T09:36:01;7.53;;;1.70;;
16967;SDS011;8600;54.338;10.128;2022-08-21T09:38:29;7.90;;;1.75;;
16967;SDS011;8600;54.338;10.128;2022-08-21T09:40:59;6.28;;;1.77;;
16967;SDS011;8600;54.338;10.128;2022-08-21T09:43:29;7.65;;;1.50;;
16967;SDS011;8600;54.338;10.128;2022-08-21T09:46:10;8.25;;;1.75;;
16967;SDS011;8600;54.338;10.128;2022-08-21T09:48:43;6.65;;;1.70;;
16967;SDS011;8600;54.338;10.128;2022-08-21T09:51:13;11.35;;;2.25;;
16967;SDS011;8600;54.338;10.128;2022-08-21T09:53:45;8.63;;;1.73;;
16967;SDS011;8600;54.338;10.128;2022-08-21T09:56:19;11.57;;;1.90;;
16967;SDS011;8600;54.338;10.128;2022-08-21T09:59:15;11.38;;;2.17;;
16967;SDS011;8600;54.338;10.128;2022-08-21T10:01:46;8.52;;;2.05;;
16967;SDS011;8600;54.338;10.128;2022-08-21T10:04:18;10.68;;;1.80;;
16967;SDS011;8600;54.338;10.128;2022-08-21T10:06:47;10.50;;;2.30;;
16967;SDS011;8600;54.338;10.128;2022-08-21T10:09:16;9.60;;;2.03;;
16967;SDS011;8600;54.338;10.128;2022-08-21T10:11:47;9.55;;;2.20;;
16967;SDS011;8600;54.338;10.128;2022-08-21T10:14:21;9.02;;;2.13;;
16967;SDS011;8600;54.338;10.128;2022-08-21T10:17:04;8.18;;;2.13;;
16967;SDS011;8600;54.338;10.128;2022-08-21T10:19:41;10.82;;;1.98;;
16967;SDS011;8600;54.338;10.128;2022-08-21T10:22:17;12.00;;;2.10;;
16967;SDS011;8600;54.338;10.128;2022-08-21T10:24:57;8.38;;;2.13;;
16967;SDS011;8600;54.338;10.128;2022-08-21T10:27:30;8.95;;;2.30;;
16967;SDS011;8600;54.338;10.128;2022-08-21T10:30:05;8.45;;;2.10;;
16967;SDS011;8600;54.338;10.128;2022-08-21T10:32:47;13.30;;;2.30;;
16967;SDS011;8600;54.338;10.128;2022-08-21T10:35:34;9.55;;;2.13;;
16967;SDS011;8600;54.338;10.128;2022-08-21T10:41:08;12.63;;;2.10;;
16967;SDS011;8600;54.338;10.128;2022-08-21T10:43:42;9.98;;;1.98;;
16967;SDS011;8600;54.338;10.128;2022-08-21T10:46:17;13.90;;;2.50;;
16967;SDS011;8600;54.338;10.128;2022-08-21T10:48:54;9.82;;;2.28;;
16967;SDS011;8600;54.338;10.128;2022-08-21T10:51:26;9.45;;;2.00;;
16967;SDS011;8600;54.338;10.128;2022-08-21T10:53:59;5.53;;;1.90;;
16967;SDS011;8600;54.338;10.128;2022-08-21T10:56:32;7.43;;;1.98;;
16967;SDS011;8600;54.338;10.128;2022-08-21T10:59:07;6.88;;;2.30;;
16967;SDS011;8600;54.338;10.128;2022-08-21T11:01:53;7.63;;;1.95;;
16967;SDS011;8600;54.338;10.128;2022-08-21T11:04:24;6.32;;;1.60;;
16967;SDS011;8600;54.338;10.128;2022-08-21T11:06:58;7.95;;;2.00;;
16967;SDS011;8600;54.338;10.128;2022-08-21T11:09:29;7.32;;;1.50;;
16967;SDS011;8600;54.338;10.128;2022-08-21T11:11:58;4.07;;;1.40;;
16967;SDS011;8600;54.338;10.128;2022-08-21T11:14:31;5.78;;;1.65;;
16967;SDS011;8600;54.338;10.128;2022-08-21T11:17:07;5.43;;;1.98;;
16967;SDS011;8600;54.338;10.128;2022-08-21T11:19:38;5.28;;;1.52;;
16967;SDS011;8600;54.338;10.128;2022-08-21T11:22:16;5.47;;;1.30;;
16967;SDS011;8600;54.338;10.128;2022-08-21T11:24:49;5.80;;;1.45;;
16967;SDS011;8600;54.338;10.128;2022-08-21T11:27:21;4.90;;;1.30;;
16967;SDS011;8600;54.338;10.128;2022-08-21T11:29:53;6.43;;;1.30;;
16967;SDS011;8600;54.338;10.128;2022-08-21T11:32:29;5.32;;;1.20;;
16967;SDS011;8600;54.338;10.128;2022-08-21T11:35:12;4.25;;;1.10;;
16967;SDS011;8600;54.338;10.128;2022-08-21T11:37:49;4.72;;;1.30;;
16967;SDS011;8600;54.338;10.128;2022-08-21T11:40:24;3.65;;;1.17;;
16967;SDS011;8600;54.338;10.128;2022-08-21T11:43:12;3.97;;;1.27;;
16967;SDS011;8600;54.338;10.128;2022-08-21T11:45:48;3.53;;;1.13;;
16967;SDS011;8600;54.338;10.128;2022-08-21T11:48:23;3.10;;;0.90;;
16967;SDS011;8600;54.338;10.128;2022-08-21T11:51:00;4.13;;;1.00;;
16967;SDS011;8600;54.338;10.128;2022-08-21T11:53:37;3.33;;;0.98;;
16967;SDS011;8600;54.338;10.128;2022-08-21T11:56:11;2.55;;;1.00;;
16967;SDS011;8600;54.338;10.128;2022-08-21T12:01:14;3.47;;;1.05;;
16967;SDS011;8600;54.338;10.128;2022-08-21T12:03:51;6.57;;;0.95;;
16967;SDS011;8600;54.338;10.128;2022-08-21T12:06:27;1.65;;;0.73;;
16967;SDS011;8600;54.338;10.128;2022-08-21T12:08:59;3.33;;;0.85;;
16967;SDS011;8600;54.338;10.128;2022-08-21T12:11:29;1.83;;;0.77;;
16967;SDS011;8600;54.338;10.128;2022-08-21T12:13:57;3.38;;;1.00;;
16967;SDS011;8600;54.338;10.128;2022-08-21T12:16:29;3.90;;;0.85;;
16967;SDS011;8600;54.338;10.128;2022-08-21T12:19:03;5.13;;;0.90;;
16967;SDS011;8600;54.338;10.128;2022-08-21T12:21:31;3.77;;;1.00;;
16967;SDS011;8600;54.338;10.128;2022-08-21T12:24:02;2.50;;;0.90;;
16967;SDS011;8600;54.338;10.128;2022-08-21T12:26:47;3.47;;;1.00;;
16967;SDS011;8600;54.338;10.128;2022-08-21T12:29:20;2.38;;;1.08;;
16967;SDS011;8600;54.338;10.128;2022-08-21T12:31:54;2.83;;;0.93;;
16967;SDS011;8600;54.338;10.128;2022-08-21T12:34:31;3.63;;;0.80;;
16967;SDS011;8600;54.338;10.128;2022-08-21T12:37:02;1.73;;;0.70;;
16967;SDS011;8600;54.338;10.128;2022-08-21T12:39:36;1.38;;;0.55;;
16967;SDS011;8600;54.338;10.128;2022-08-21T12:42:06;2.75;;;0.90;;
16967;SDS011;8600;54.338;10.128;2022-08-21T12:44:42;2.08;;;0.77;;
16967;SDS011;8600;54.338;10.128;2022-08-21T12:47:16;2.40;;;0.85;;
16967;SDS011;8600;54.338;10.128;2022-08-21T12:49:50;2.33;;;0.77;;
16967;SDS011;8600;54.338;10.128;2022-08-21T12:52:22;3.03;;;0.65;;
16967;SDS011;8600;54.338;10.128;2022-08-21T12:57:26;3.40;;;0.77;;
16967;SDS011;8600;54.338;10.128;2022-08-21T12:59:55;3.10;;;1.00;;
16967;SDS011;8600;54.338;10.128;2022-08-21T13:02:24;2.70;;;0.88;;
16967;SDS011;8600;54.338;10.128;2022-08-21T13:04:54;5.55;;;0.77;;
16967;SDS011;8600;54.338;10.128;2022-08-21T13:07:24;3.15;;;0.90;;
16967;SDS011;8600;54.338;10.128;2022-08-21T13:09:56;2.38;;;0.93;;
16967;SDS011;8600;54.338;10.128;2022-08-21T13:12:25;3.70;;;0.80;;
16967;SDS011;8600;54.338;10.128;2022-08-21T13:14:55;2.03;;;0.60;;
16967;SDS011;8600;54.338;10.128;2022-08-21T13:17:25;1.40;;;0.70;;
16967;SDS011;8600;54.338;10.128;2022-08-21T13:19:53;2.75;;;0.60;;
16967;SDS011;8600;54.338;10.128;2022-08-21T13:22:21;2.33;;;0.70;;
16967;SDS011;8600;54.338;10.128;2022-08-21T13:24:49;3.33;;;0.85;;
16967;SDS011;8600;54.338;10.128;2022-08-21T13:27:19;3.92;;;0.90;;
16967;SDS011;8600;54.338;10.128;2022-08-21T13:29:59;2.28;;;0.60;;
16967;SDS011;8600;54.338;10.128;2022-08-21T13:32:28;1.98;;;0.85;;
16967;SDS011;8600;54.338;10.128;2022-08-21T13:34:58;2.50;;;0.60;;
16967;SDS011;8600;54.338;10.128;2022-08-21T13:37:33;3.45;;;0.90;;
16967;SDS011;8600;54.338;10.128;2022-08-21T13:40:01;2.10;;;0.73;;
16967;SDS011;8600;54.338;10.128;2022-08-21T13:42:34;3.22;;;0.82;;
16967;SDS011;8600;54.338;10.128;2022-08-21T13:45:01;4.30;;;0.98;;
16967;SDS011;8600;54.338;10.128;2022-08-21T13:47:27;3.72;;;0.90;;
16967;SDS011;8600;54.338;10.128;2022-08-21T13:49:55;5.97;;;0.85;;
16967;SDS011;8600;54.338;10.128;2022-08-21T13:52:23;3.42;;;1.08;;
16967;SDS011;8600;54.338;10.128;2022-08-21T13:54:54;5.57;;;1.00;;
16967;SDS011;8600;54.338;10.128;2022-08-21T13:57:26;7.22;;;1.10;;
16967;SDS011;8600;54.338;10.128;2022-08-21T14:02:42;5.22;;;1.00;;
16967;SDS011;8600;54.338;10.128;2022-08-21T14:05:14;5.47;;;1.10;;
16967;SDS011;8600;54.338;10.128;2022-08-21T14:07:45;7.93;;;1.17;;
16967;SDS011;8600;54.338;10.128;2022-08-21T14:10:15;4.07;;;0.98;;
16967;SDS011;8600;54.338;10.128;2022-08-21T14:12:46;5.03;;;1.13;;
16967;SDS011;8600;54.338;10.128;2022-08-21T14:15:17;4.63;;;1.00;;
16967;SDS011;8600;54.338;10.128;2022-08-21T14:17:48;4.07;;;1.00;;
16967;SDS011;8600;54.338;10.128;2022-08-21T14:20:25;3.35;;;0.90;;
16967;SDS011;8600;54.338;10.128;2022-08-21T14:22:54;5.03;;;1.08;;
16967;SDS011;8600;54.338;10.128;2022-08-21T14:25:29;7.00;;;1.25;;
16967;SDS011;8600;54.338;10.128;2022-08-21T14:28:03;6.68;;;1.10;;
16967;SDS011;8600;54.338;10.128;2022-08-21T14:30:39;4.72;;;1.08;;
16967;SDS011;8600;54.338;10.128;2022-08-21T14:33:08;3.53;;;1.10;;
16967;SDS011;8600;54.338;10.128;2022-08-21T14:35:37;4.82;;;1.10;;
16967;SDS011;8600;54.338;10.128;2022-08-21T14:38:10;4.72;;;1.00;;
16967;SDS011;8600;54.338;10.128;2022-08-21T14:40:39;5.35;;;1.02;;
16967;SDS011;8600;54.338;10.128;2022-08-21T14:43:07;5.40;;;1.17;;
16967;SDS011;8600;54.338;10.128;2022-08-21T14:45:34;5.10;;;0.95;;
16967;SDS011;8600;54.338;10.128;2022-08-21T14:48:05;5.53;;;1.33;;
16967;SDS011;8600;54.338;10.128;2022-08-21T14:50:32;5.47;;;1.40;;
16967;SDS011;8600;54.338;10.128;2022-08-21T14:52:59;6.28;;;1.20;;
16967;SDS011;8600;54.338;10.128;2022-08-21T14:55:26;4.75;;;1.27;;
16967;SDS011;8600;54.338;10.128;2022-08-21T14:57:54;4.57;;;1.17;;
16967;SDS011;8600;54.338;10.128;2022-08-21T15:00:23;6.50;;;1.30;;
16967;SDS011;8600;54.338;10.128;2022-08-21T15:02:51;5.30;;;1.10;;
16967;SDS011;8600;54.338;10.128;2022-08-21T15:05:20;6.65;;;1.35;;
16967;SDS011;8600;54.338;10.128;2022-08-21T15:07:47;6.05;;;1.42;;
16967;SDS011;8600;54.338;10.128;2022-08-21T15:10:13;6.72;;;1.33;;
16967;SDS011;8600;54.338;10.128;2022-08-21T15:12:40;6.60;;;1.30;;